Tabellarische Übersicht vom Samstag, den 18.05.2024

Oder anderes Datum wählen:






max 23,5°C 96,0% 14,3°C 1009,0hPa 22,0°C 19,8km/h (3Bft) 8,5km/h 358° (N) ∑0,0l/m² 75,000klx ∑0,0min
min 11,6°C 49,0% 10,9°C 1006,8hPa 12,0°C 0,0km/h (0Bft) 0,0km/h 1° (N) ∑0,0l/m² 0,000klx ∑0,0min
Ø 15,2°C 84,0% 12,2°C 1007,9hPa 15,0°C 4,3km/h (1Bft) 2,1km/h 148° (SO) ∑0,0l/m² 27,000klx ∑0,0min
Zeit Temperatur Luftfeuchte Taupunkt Luftdruck Windchill Windböen Windgeschwindigkeit Windrichtung Regen Helligkeit Regenzeit
11:45 23,0°C 49,5% 11,8°C 1008,9hPa 23,0°C 12,2km/h (3Bft) 5,8km/h 45° (NO) 0,0l/m² 74,569klx 0,0min
11:40 23,2°C 50,6% 12,4°C 1008,9hPa 23,2°C 16,9km/h (3Bft) 6,2km/h 30° (NO) 0,0l/m² 58,580klx 0,0min
11:35 23,5°C 50,7% 12,7°C 1008,8hPa 23,5°C 11,9km/h (2Bft) 6,2km/h 17° (N) 0,0l/m² 69,352klx 0,0min
11:30 23,2°C 52,5% 12,9°C 1008,8hPa 23,2°C 13,0km/h (3Bft) 4,9km/h 30° (NO) 0,0l/m² 72,468klx 0,0min
11:25 23,0°C 53,6% 13,0°C 1008,8hPa 23,0°C 11,5km/h (2Bft) 5,5km/h 27° (NO) 0,0l/m² 71,148klx 0,0min
11:20 22,8°C 52,9% 12,7°C 1008,9hPa 22,1°C 18,7km/h (3Bft) 8,5km/h 30° (NO) 0,0l/m² 69,647klx 0,0min
11:15 22,7°C 53,7% 12,8°C 1008,9hPa 22,5°C 19,8km/h (3Bft) 7,1km/h 10° (N) 0,0l/m² 68,783klx 0,0min
11:10 23,0°C 52,2% 12,6°C 1008,9hPa 22,5°C 15,8km/h (3Bft) 7,7km/h 17° (N) 0,0l/m² 68,172klx 0,0min
11:05 23,1°C 55,9% 13,8°C 1008,9hPa 22,6°C 19,4km/h (3Bft) 7,9km/h 8° (N) 0,0l/m² 65,705klx 0,0min
11:00 22,6°C 56,3% 13,5°C 1008,9hPa 22,6°C 7,9km/h (2Bft) 4,1km/h 23° (NO) 0,0l/m² 64,268klx 0,0min
10:55 22,6°C 55,1% 13,1°C 1009,0hPa 22,6°C 10,1km/h (2Bft) 5,5km/h 26° (NO) 0,0l/m² 63,849klx 0,0min
10:50 22,8°C 56,2% 13,6°C 1009,0hPa 22,7°C 14,8km/h (3Bft) 6,6km/h 21° (N) 0,0l/m² 63,004klx 0,0min
10:45 22,9°C 57,3% 14,0°C 1009,0hPa 22,9°C 9,0km/h (2Bft) 3,9km/h 39° (NO) 0,0l/m² 62,166klx 0,0min
10:40 22,5°C 58,8% 14,0°C 1008,9hPa 22,5°C 11,2km/h (2Bft) 4,6km/h 354° (N) 0,0l/m² 61,133klx 0,0min
10:35 22,1°C 58,4% 13,6°C 1008,9hPa 22,1°C 6,1km/h (2Bft) 3,8km/h 15° (N) 0,0l/m² 59,436klx 0,0min
10:30 22,1°C 54,7% 12,6°C 1008,9hPa 22,1°C 7,2km/h (2Bft) 3,3km/h 61° (NO) 0,0l/m² 58,435klx 0,0min
10:25 22,2°C 55,3% 12,8°C 1008,9hPa 22,2°C 11,2km/h (2Bft) 5,7km/h 2° (N) 0,0l/m² 57,822klx 0,0min
10:20 21,9°C 57,4% 13,1°C 1008,9hPa 21,9°C 10,1km/h (2Bft) 4,2km/h 11° (N) 0,0l/m² 56,067klx 0,0min
10:15 21,6°C 56,5% 12,5°C 1008,9hPa 21,6°C 11,5km/h (2Bft) 5,6km/h 14° (N) 0,0l/m² 53,650klx 0,0min
10:10 21,5°C 56,1% 12,4°C 1008,9hPa 21,1°C 14,8km/h (3Bft) 7,5km/h 23° (NO) 0,0l/m² 54,280klx 0,0min
10:05 21,2°C 57,5% 12,5°C 1008,9hPa 21,2°C 10,1km/h (2Bft) 4,7km/h 47° (NO) 0,0l/m² 54,500klx 0,0min
10:00 21,1°C 60,7% 13,3°C 1008,9hPa 21,1°C 11,2km/h (2Bft) 4,2km/h 23° (NO) 0,0l/m² 44,441klx 0,0min
09:55 20,9°C 63,7% 13,7°C 1008,8hPa 20,9°C 4,7km/h (1Bft) 2,6km/h 135° (SO) 0,0l/m² 41,140klx 0,0min
09:50 20,5°C 64,1% 13,5°C 1008,9hPa 20,5°C 4,7km/h (1Bft) 2,3km/h 308° (NW) 0,0l/m² 41,584klx 0,0min
09:45 21,1°C 62,4% 13,6°C 1008,8hPa 21,1°C 6,1km/h (2Bft) 3,3km/h 298° (NW) 0,0l/m² 38,494klx 0,0min
09:40 20,8°C 64,7% 13,9°C 1008,8hPa 20,8°C 5,8km/h (1Bft) 2,4km/h 273° (W) 0,0l/m² 44,346klx 0,0min
09:35 20,6°C 63,9% 13,5°C 1008,8hPa 20,6°C 5,4km/h (1Bft) 3,0km/h 240° (SW) 0,0l/m² 42,937klx 0,0min
09:30 21,0°C 63,8% 13,8°C 1008,7hPa 21,0°C 5,8km/h (1Bft) 2,9km/h 320° (NW) 0,0l/m² 41,170klx 0,0min
09:25 21,3°C 63,6% 14,1°C 1008,7hPa 21,3°C 5,0km/h (1Bft) 2,3km/h 264° (W) 0,0l/m² 39,298klx 0,0min
09:20 20,8°C 66,5% 14,3°C 1008,7hPa 20,8°C 4,0km/h (1Bft) 2,3km/h 237° (SW) 0,0l/m² 37,752klx 0,0min
09:15 20,4°C 66,3% 13,9°C 1008,7hPa 20,4°C 5,4km/h (1Bft) 2,5km/h 358° (N) 0,0l/m² 35,671klx 0,0min
09:10 20,5°C 65,3% 13,8°C 1008,8hPa 20,5°C 8,6km/h (2Bft) 4,2km/h 349° (N) 0,0l/m² 36,868klx 0,0min
09:05 19,9°C 68,0% 13,9°C 1008,8hPa 19,9°C 5,4km/h (1Bft) 2,2km/h 223° (SW) 0,0l/m² 38,110klx 0,0min
09:00 19,1°C 69,7% 13,5°C 1008,7hPa 19,1°C 3,6km/h (1Bft) 1,5km/h 245° (SW) 0,0l/m² 40,947klx 0,0min
08:55 18,6°C 71,3% 13,3°C 1008,7hPa 18,6°C 3,2km/h (1Bft) 1,5km/h 207° (SW) 0,0l/m² 33,457klx 0,0min
08:50 19,1°C 69,4% 13,4°C 1008,8hPa 19,1°C 3,2km/h (1Bft) 1,5km/h 242° (SW) 0,0l/m² 28,119klx 0,0min
08:45 19,1°C 73,2% 14,1°C 1008,8hPa 19,1°C 6,5km/h (2Bft) 3,1km/h 188° (S) 0,0l/m² 36,311klx 0,0min
08:40 18,2°C 77,0% 14,1°C 1008,7hPa 18,2°C 5,8km/h (1Bft) 2,3km/h 252° (W) 0,0l/m² 38,143klx 0,0min
08:35 16,4°C 83,5% 13,6°C 1008,8hPa 16,4°C 3,2km/h (1Bft) 1,5km/h 198° (S) 0,0l/m² 33,358klx 0,0min
08:30 15,6°C 85,0% 13,1°C 1008,8hPa 15,6°C 2,9km/h (1Bft) 1,8km/h 217° (SW) 0,0l/m² 21,978klx 0,0min
08:25 15,1°C 85,7% 12,7°C 1008,8hPa 15,1°C 3,6km/h (1Bft) 2,1km/h 195° (S) 0,0l/m² 20,305klx 0,0min
08:20 14,9°C 87,9% 12,9°C 1008,8hPa 14,9°C 2,9km/h (1Bft) 1,3km/h 210° (SW) 0,0l/m² 18,222klx 0,0min
08:15 14,5°C 88,8% 12,7°C 1008,8hPa 14,5°C 2,9km/h (1Bft) 1,7km/h 220° (SW) 0,0l/m² 17,652klx 0,0min
08:10 14,3°C 88,7% 12,5°C 1008,8hPa 14,3°C 2,5km/h (1Bft) 1,3km/h 202° (S) 0,0l/m² 17,130klx 0,0min
08:05 14,1°C 90,2% 12,6°C 1008,7hPa 14,1°C 2,2km/h (1Bft) 1,2km/h 297° (NW) 0,0l/m² 15,975klx 0,0min
08:00 13,9°C 91,5% 12,6°C 1008,7hPa 13,9°C 2,9km/h (1Bft) 1,5km/h 233° (SW) 0,0l/m² 15,051klx 0,0min
07:55 13,7°C 91,6% 12,4°C 1008,7hPa 13,7°C 2,5km/h (1Bft) 1,2km/h 211° (SW) 0,0l/m² 14,083klx 0,0min
07:50 13,6°C 92,2% 12,3°C 1008,6hPa 13,6°C 2,9km/h (1Bft) 1,4km/h 222° (SW) 0,0l/m² 12,867klx 0,0min
07:45 13,5°C 92,4% 12,3°C 1008,6hPa 13,5°C 1,4km/h (0Bft) 1,0km/h 236° (SW) 0,0l/m² 11,507klx 0,0min
07:40 13,4°C 93,0% 12,3°C 1008,6hPa 13,4°C 1,1km/h (0Bft) 0,8km/h 228° (SW) 0,0l/m² 10,614klx 0,0min
07:35 13,3°C 93,3% 12,2°C 1008,6hPa 13,3°C 1,1km/h (0Bft) 0,8km/h 209° (SW) 0,0l/m² 10,021klx 0,0min
07:30 13,1°C 93,5% 12,0°C 1008,6hPa 13,1°C 1,4km/h (0Bft) 1,1km/h 229° (SW) 0,0l/m² 9,298klx 0,0min
07:25 12,8°C 93,8% 11,9°C 1008,5hPa 12,8°C 0,7km/h (0Bft) 0,7km/h 232° (SW) 0,0l/m² 8,481klx 0,0min
07:20 12,6°C 94,2% 11,7°C 1008,5hPa 12,6°C 0,0km/h (0Bft) 0,0km/h - 0,0l/m² 7,635klx 0,0min
07:15 12,4°C 94,5% 11,6°C 1008,5hPa 12,4°C 0,0km/h (0Bft) 0,0km/h - 0,0l/m² 6,858klx 0,0min
07:10 12,2°C 94,8% 11,4°C 1008,5hPa 12,2°C 2,2km/h (1Bft) 1,1km/h 130° (SO) 0,0l/m² 6,105klx 0,0min
07:05 12,1°C 95,2% 11,4°C 1008,5hPa 12,1°C 1,4km/h (0Bft) 0,9km/h 130° (SO) 0,0l/m² 5,496klx 0,0min
07:00 12,0°C 95,5% 11,3°C 1008,5hPa 12,0°C 2,2km/h (1Bft) 1,1km/h 132° (SO) 0,0l/m² 5,122klx 0,0min
06:55 11,9°C 95,6% 11,2°C 1008,5hPa 11,9°C 2,9km/h (1Bft) 1,4km/h 141° (SO) 0,0l/m² 4,829klx 0,0min
06:50 11,9°C 95,8% 11,3°C 1008,5hPa 11,9°C 3,6km/h (1Bft) 1,5km/h 177° (S) 0,0l/m² 4,485klx 0,0min
06:45 11,9°C 95,9% 11,3°C 1008,4hPa 11,9°C 5,0km/h (1Bft) 3,2km/h 162° (S) 0,0l/m² 4,104klx 0,0min
06:40 11,9°C 95,8% 11,2°C 1008,4hPa 11,9°C 6,1km/h (2Bft) 3,6km/h 165° (S) 0,0l/m² 3,680klx 0,0min
06:35 12,0°C 95,7% 11,3°C 1008,4hPa 12,0°C 5,8km/h (1Bft) 3,0km/h 187° (S) 0,0l/m² 3,314klx 0,0min
06:30 12,1°C 96,0% 11,5°C 1008,3hPa 12,1°C 5,4km/h (1Bft) 3,7km/h 181° (S) 0,0l/m² 2,951klx 0,0min
06:25 12,1°C 96,2% 11,5°C 1008,3hPa 12,1°C 0,0km/h (0Bft) 0,0km/h - 0,0l/m² 2,558klx 0,0min
06:20 12,0°C 96,1% 11,4°C 1008,3hPa 12,0°C 1,1km/h (0Bft) 0,9km/h 130° (SO) 0,0l/m² 2,213klx 0,0min
06:15 12,0°C 96,1% 11,4°C 1008,2hPa 12,0°C 0,0km/h (0Bft) 0,0km/h - 0,0l/m² 1,939klx 0,0min
06:10 11,9°C 96,1% 11,3°C 1008,2hPa 11,9°C 0,0km/h (0Bft) 0,0km/h - 0,0l/m² 1,666klx 0,0min
06:05 11,9°C 96,0% 11,2°C 1008,1hPa 11,9°C 0,0km/h (0Bft) 0,0km/h - 0,0l/m² 1,447klx 0,0min
06:00 11,8°C 95,9% 11,2°C 1008,0hPa 11,8°C 0,0km/h (0Bft) 0,0km/h - 0,0l/m² 1,234klx 0,0min
05:55 11,8°C 96,0% 11,2°C 1008,0hPa 11,8°C 3,2km/h (1Bft) 1,3km/h 318° (NW) 0,0l/m² 1,012klx 0,0min
05:50 11,8°C 95,8% 11,1°C 1007,9hPa 11,8°C 3,2km/h (1Bft) 1,4km/h 307° (NW) 0,0l/m² 0,780klx 0,0min
05:45 11,7°C 95,7% 11,0°C 1007,9hPa 11,7°C 2,5km/h (1Bft) 1,2km/h 320° (NW) 0,0l/m² 0,587klx 0,0min
05:40 11,6°C 95,6% 11,0°C 1007,8hPa 11,6°C 2,9km/h (1Bft) 1,3km/h 3° (N) 0,0l/m² 0,434klx 0,0min
05:35 11,6°C 95,4% 10,9°C 1007,8hPa 11,6°C 1,1km/h (0Bft) 0,9km/h 318° (NW) 0,0l/m² 0,295klx 0,0min
05:30 11,7°C 95,3% 11,0°C 1007,7hPa 11,7°C 1,1km/h (0Bft) 0,7km/h 318° (NW) 0,0l/m² 0,189klx 0,0min
05:25 11,7°C 95,3% 11,0°C 1007,6hPa 11,7°C 2,5km/h (1Bft) 1,2km/h 222° (SW) 0,0l/m² 0,112klx 0,0min
05:20 11,8°C 95,5% 11,1°C 1007,6hPa 11,8°C 2,2km/h (1Bft) 1,3km/h 1° (N) 0,0l/m² 0,061klx 0,0min
05:15 11,7°C 95,4% 11,0°C 1007,6hPa 11,7°C 2,9km/h (1Bft) 1,5km/h 10° (N) 0,0l/m² 0,032klx 0,0min
05:10 11,7°C 95,3% 11,0°C 1007,5hPa 11,7°C 1,8km/h (0Bft) 1,2km/h 347° (N) 0,0l/m² 0,017klx 0,0min
05:05 11,7°C 95,3% 11,0°C 1007,5hPa 11,7°C 2,2km/h (1Bft) 1,1km/h 316° (NW) 0,0l/m² 0,009klx 0,0min
05:00 11,8°C 95,4% 11,0°C 1007,5hPa 11,8°C 2,2km/h (1Bft) 1,2km/h 311° (NW) 0,0l/m² 0,004klx 0,0min
04:55 11,8°C 95,4% 11,1°C 1007,5hPa 11,8°C 3,6km/h (1Bft) 1,5km/h 324° (NW) 0,0l/m² 0,002klx 0,0min
04:50 11,7°C 95,4% 11,0°C 1007,4hPa 11,7°C 1,1km/h (0Bft) 0,8km/h 318° (NW) 0,0l/m² 0,001klx 0,0min
04:45 11,7°C 95,3% 11,0°C 1007,4hPa 11,7°C 2,2km/h (1Bft) 1,2km/h 166° (S) 0,0l/m² 0,001klx 0,0min
04:40 11,7°C 95,3% 11,0°C 1007,4hPa 11,7°C 3,2km/h (1Bft) 1,4km/h 147° (SO) 0,0l/m² 0,000klx 0,0min
04:35 11,8°C 95,3% 11,0°C 1007,4hPa 11,8°C 3,6km/h (1Bft) 1,8km/h 137° (SO) 0,0l/m² 0,000klx 0,0min
04:30 11,8°C 95,3% 11,0°C 1007,4hPa 11,8°C 4,3km/h (1Bft) 1,8km/h 136° (SO) 0,0l/m² 0,000klx 0,0min
04:25 11,7°C 95,2% 11,0°C 1007,5hPa 11,7°C 2,9km/h (1Bft) 1,4km/h 133° (SO) 0,0l/m² 0,000klx 0,0min
04:20 11,8°C 95,0% 11,0°C 1007,4hPa 11,8°C 1,8km/h (0Bft) 1,1km/h 194° (S) 0,0l/m² 0,000klx 0,0min
04:15 11,8°C 94,9% 11,0°C 1007,3hPa 11,8°C 2,2km/h (1Bft) 1,2km/h 220° (SW) 0,0l/m² 0,000klx 0,0min
04:10 11,9°C 94,8% 11,1°C 1007,3hPa 11,9°C 0,0km/h (0Bft) 0,0km/h - 0,0l/m² 0,000klx 0,0min
04:05 11,9°C 94,7% 11,1°C 1007,4hPa 11,9°C 1,4km/h (0Bft) 1,0km/h 121° (SO) 0,0l/m² 0,000klx 0,0min
04:00 11,9°C 94,5% 11,1°C 1007,4hPa 11,9°C 2,5km/h (1Bft) 1,1km/h 125° (SO) 0,0l/m² 0,000klx 0,0min
03:55 12,0°C 94,3% 11,1°C 1007,4hPa 12,0°C 3,6km/h (1Bft) 1,6km/h 101° (O) 0,0l/m² 0,000klx 0,0min
03:50 12,1°C 94,1% 11,1°C 1007,3hPa 12,1°C 1,4km/h (0Bft) 1,0km/h 142° (SO) 0,0l/m² 0,000klx 0,0min
03:45 12,1°C 94,2% 11,2°C 1007,2hPa 12,1°C 1,1km/h (0Bft) 1,0km/h 101° (O) 0,0l/m² 0,000klx 0,0min
03:40 12,2°C 94,3% 11,3°C 1007,2hPa 12,2°C 2,9km/h (1Bft) 1,6km/h 122° (SO) 0,0l/m² 0,000klx 0,0min
03:35 12,2°C 94,3% 11,3°C 1007,3hPa 12,2°C 4,3km/h (1Bft) 2,2km/h 123° (SO) 0,0l/m² 0,000klx 0,0min
03:30 12,2°C 94,3% 11,4°C 1007,3hPa 12,2°C 4,0km/h (1Bft) 2,0km/h 122° (SO) 0,0l/m² 0,000klx 0,0min
03:25 12,3°C 94,2% 11,3°C 1007,2hPa 12,3°C 4,0km/h (1Bft) 2,0km/h 124° (SO) 0,0l/m² 0,000klx 0,0min
03:20 12,3°C 94,1% 11,4°C 1007,2hPa 12,3°C 4,3km/h (1Bft) 2,2km/h 126° (SO) 0,0l/m² 0,000klx 0,0min
03:15 12,4°C 94,1% 11,5°C 1007,2hPa 12,4°C 5,4km/h (1Bft) 2,3km/h 121° (SO) 0,0l/m² 0,000klx 0,0min
03:10 12,5°C 93,9% 11,5°C 1007,1hPa 12,5°C 4,0km/h (1Bft) 1,8km/h 118° (SO) 0,0l/m² 0,000klx 0,0min
03:05 12,5°C 93,7% 11,5°C 1007,1hPa 12,5°C 3,6km/h (1Bft) 1,9km/h 140° (SO) 0,0l/m² 0,000klx 0,0min
03:00 12,6°C 93,7% 11,6°C 1007,1hPa 12,6°C 3,6km/h (1Bft) 2,3km/h 142° (SO) 0,0l/m² 0,000klx 0,0min
02:55 12,7°C 93,6% 11,7°C 1007,1hPa 12,7°C 4,3km/h (1Bft) 1,8km/h 139° (SO) 0,0l/m² 0,000klx 0,0min
02:50 12,7°C 93,5% 11,6°C 1007,1hPa 12,7°C 2,5km/h (1Bft) 1,4km/h 126° (SO) 0,0l/m² 0,000klx 0,0min
02:45 12,7°C 93,3% 11,6°C 1007,0hPa 12,7°C 1,8km/h (0Bft) 1,1km/h 119° (SO) 0,0l/m² 0,000klx 0,0min
02:40 12,7°C 93,1% 11,6°C 1007,0hPa 12,7°C 1,4km/h (0Bft) 0,9km/h 128° (SO) 0,0l/m² 0,000klx 0,0min
02:35 12,8°C 92,9% 11,7°C 1006,9hPa 12,8°C 2,9km/h (1Bft) 1,3km/h 146° (SO) 0,0l/m² 0,000klx 0,0min
02:30 12,9°C 92,7% 11,8°C 1006,9hPa 12,9°C 3,6km/h (1Bft) 1,7km/h 145° (SO) 0,0l/m² 0,000klx 0,0min
02:25 13,1°C 92,7% 11,9°C 1006,8hPa 13,1°C 1,8km/h (0Bft) 1,0km/h 154° (SO) 0,0l/m² 0,000klx 0,0min
02:20 13,2°C 92,7% 12,0°C 1006,9hPa 13,2°C 1,8km/h (0Bft) 1,0km/h 155° (SO) 0,0l/m² 0,000klx 0,0min
02:15 13,3°C 92,5% 12,1°C 1006,9hPa 13,3°C 0,0km/h (0Bft) 0,0km/h - 0,0l/m² 0,000klx 0,0min
02:10 13,4°C 92,1% 12,1°C 1006,9hPa 13,4°C 0,7km/h (0Bft) 0,7km/h 235° (SW) 0,0l/m² 0,000klx 0,0min
02:05 13,4°C 91,6% 12,1°C 1006,9hPa 13,4°C 0,7km/h (0Bft) 0,7km/h 232° (SW) 0,0l/m² 0,000klx 0,0min
02:00 13,4°C 91,5% 12,1°C 1006,9hPa 13,4°C 1,8km/h (0Bft) 1,0km/h 30° (NO) 0,0l/m² 0,000klx 0,0min
01:55 13,5°C 91,8% 12,2°C 1006,9hPa 13,5°C 2,5km/h (1Bft) 1,2km/h 357° (N) 0,0l/m² 0,000klx 0,0min
01:50 13,5°C 92,1% 12,2°C 1006,9hPa 13,5°C 3,6km/h (1Bft) 1,9km/h 116° (SO) 0,0l/m² 0,000klx 0,0min
01:45 13,5°C 92,5% 12,3°C 1007,0hPa 13,5°C 4,0km/h (1Bft) 2,2km/h 113° (SO) 0,0l/m² 0,000klx 0,0min
01:40 13,5°C 92,6% 12,3°C 1007,0hPa 13,5°C 3,6km/h (1Bft) 1,8km/h 118° (SO) 0,0l/m² 0,000klx 0,0min
01:35 13,5°C 92,5% 12,3°C 1007,0hPa 13,5°C 5,8km/h (1Bft) 2,9km/h 144° (SO) 0,0l/m² 0,000klx 0,0min
01:30 13,5°C 92,1% 12,2°C 1006,9hPa 13,5°C 5,4km/h (1Bft) 2,5km/h 162° (S) 0,0l/m² 0,000klx 0,0min
01:25 13,6°C 91,8% 12,3°C 1006,9hPa 13,6°C 2,9km/h (1Bft) 1,2km/h 178° (S) 0,0l/m² 0,000klx 0,0min
01:20 13,7°C 91,6% 12,3°C 1006,9hPa 13,7°C 2,9km/h (1Bft) 1,3km/h 151° (SO) 0,0l/m² 0,000klx 0,0min
01:15 13,8°C 91,2% 12,4°C 1006,9hPa 13,8°C 2,9km/h (1Bft) 1,6km/h 153° (SO) 0,0l/m² 0,000klx 0,0min
01:10 13,9°C 91,0% 12,4°C 1006,9hPa 13,9°C 1,8km/h (0Bft) 1,2km/h 183° (S) 0,0l/m² 0,000klx 0,0min
01:05 13,9°C 91,1% 12,5°C 1006,9hPa 13,9°C 0,0km/h (0Bft) 0,0km/h - 0,0l/m² 0,000klx 0,0min
01:00 13,9°C 91,5% 12,5°C 1007,0hPa 13,9°C 1,4km/h (0Bft) 1,1km/h 97° (O) 0,0l/m² 0,000klx 0,0min
00:55 13,9°C 91,7% 12,5°C 1007,0hPa 13,9°C 3,6km/h (1Bft) 2,0km/h 121° (SO) 0,0l/m² 0,000klx 0,0min
00:50 13,9°C 91,7% 12,6°C 1007,0hPa 13,9°C 4,3km/h (1Bft) 1,9km/h 158° (S) 0,0l/m² 0,000klx 0,0min
00:45 13,9°C 91,6% 12,6°C 1007,0hPa 13,9°C 4,7km/h (1Bft) 2,8km/h 171° (S) 0,0l/m² 0,000klx 0,0min
00:40 14,0°C 91,3% 12,6°C 1006,9hPa 14,0°C 4,7km/h (1Bft) 2,5km/h 175° (S) 0,0l/m² 0,000klx 0,0min
00:35 14,0°C 90,9% 12,6°C 1006,9hPa 14,0°C 0,0km/h (0Bft) 0,0km/h - 0,0l/m² 0,000klx 0,0min
00:30 14,1°C 90,6% 12,6°C 1006,8hPa 14,1°C 1,8km/h (0Bft) 1,2km/h 177° (S) 0,0l/m² 0,000klx 0,0min
00:25 14,2°C 90,7% 12,7°C 1006,8hPa 14,2°C 2,2km/h (1Bft) 1,1km/h 185° (S) 0,0l/m² 0,000klx 0,0min
00:20 14,3°C 90,7% 12,8°C 1006,8hPa 14,3°C 1,1km/h (0Bft) 0,8km/h 224° (SW) 0,0l/m² 0,000klx 0,0min
00:15 14,2°C 90,8% 12,7°C 1006,8hPa 14,2°C 0,0km/h (0Bft) 0,0km/h - 0,0l/m² 0,000klx 0,0min
00:10 14,2°C 90,8% 12,7°C 1006,8hPa 14,2°C 0,0km/h (0Bft) 0,0km/h - 0,0l/m² 0,000klx 0,0min
00:05 14,3°C 91,0% 12,9°C 1006,8hPa 14,3°C 0,0km/h (0Bft) 0,0km/h - 0,0l/m² 0,000klx 0,0min
00:00 14,3°C 90,5% 12,8°C 1006,8hPa 14,3°C 1,4km/h (0Bft) 1,1km/h 181° (S) 0,0l/m² 0,000klx 0,0min

Aktuelle Wetterdaten

18.05.2024 11:45 Uhr